Time;durP1;ratioP1;P1;durP2;ratioP2;P2;SDS_P1;SDS_P2;PMS_P1;PMS_P2;Temp;Humidity;BMP_temperature;BMP_pressure;BME280_temperature;BME280_humidity;BME280_pressure;Samples;Min_cycle;Max_cycle;Signal;HPM_P1;HPM_P2
2022/12/29 00:00:04;;;;;;;6.57;5.05;;;10.90;99.90;11.30;99713.00;;;;347211;28;83329;-90
2022/12/29 00:00:16;;;;;;;7.05;5.18;;;11.00;99.90;11.30;99713.00;;;;343272;28;91874;-90
2022/12/29 00:00:28;;;;;;;6.70;4.90;;;11.00;99.90;11.30;99707.00;;;;343120;28;83714;-90
2022/12/29 00:00:40;;;;;;;7.20;4.97;;;11.00;99.90;11.20;99708.00;;;;345609;28;88604;-90
2022/12/29 00:00:52;;;;;;;7.55;5.03;;;11.00;99.90;11.20;99708.00;;;;346996;28;84355;-90
2022/12/29 00:01:04;;;;;;;7.32;5.03;;;11.00;99.90;11.30;99704.00;;;;345266;28;91207;-90
2022/12/29 00:01:17;;;;;;;7.18;5.22;;;11.00;99.90;11.30;99704.00;;;;344278;28;83495;-90
2022/12/29 00:01:29;;;;;;;8.52;5.78;;;11.00;99.90;11.30;99709.00;;;;344085;28;88658;-90
2022/12/29 00:01:41;;;;;;;8.23;5.93;;;11.00;99.90;11.30;99708.00;;;;345843;28;83393;-89
2022/12/29 00:01:53;;;;;;;8.93;5.60;;;11.00;99.90;11.30;99709.00;;;;343746;28;93017;-90
2022/12/29 00:02:05;;;;;;;9.85;5.28;;;11.00;99.90;11.30;99706.00;;;;345821;28;83427;-90
2022/12/29 00:02:17;;;;;;;10.13;5.30;;;11.00;99.90;11.30;99711.00;;;;345568;28;88614;-90
2022/12/29 00:02:29;;;;;;;8.18;5.53;;;11.00;99.90;11.30;99703.00;;;;344537;28;83260;-90
2022/12/29 00:02:41;;;;;;;7.43;5.32;;;11.00;99.90;11.30;99708.00;;;;344155;28;88376;-89
2022/12/29 00:02:53;;;;;;;6.72;5.25;;;11.00;99.90;11.30;99700.00;;;;344325;28;83502;-89
2022/12/29 00:03:05;;;;;;;8.27;5.40;;;11.00;99.90;11.20;99707.00;;;;344093;28;89732;-89
2022/12/29 00:03:17;;;;;;;7.75;5.47;;;11.00;99.90;11.30;99708.00;;;;344541;28;82335;-89
2022/12/29 00:03:29;;;;;;;6.75;5.35;;;11.00;99.90;11.40;99704.00;;;;345175;28;89898;-89
2022/12/29 00:03:41;;;;;;;6.63;5.32;;;11.00;99.90;11.30;99702.00;;;;344332;28;83556;-90
2022/12/29 00:03:53;;;;;;;6.70;4.70;;;11.00;99.90;11.30;99702.00;;;;345286;28;90950;-90
2022/12/29 00:04:06;;;;;;;7.30;4.75;;;11.00;99.90;11.40;99711.00;;;;344514;28;83397;-89
2022/12/29 00:04:25;;;;;;;7.88;5.45;;;11.00;99.90;11.30;99694.00;;;;342796;28;88944;-90
2022/12/29 00:04:37;;;;;;;8.18;5.35;;;11.00;99.90;11.30;99696.00;;;;345847;28;83134;-90
2022/12/29 00:04:51;;;;;;;9.45;5.20;;;11.00;99.90;11.30;99712.00;;;;343896;28;91009;-89
2022/12/29 00:05:04;;;;;;;8.73;4.63;;;11.00;99.90;11.40;99714.00;;;;344670;28;83472;-89
2022/12/29 00:05:15;;;;;;;6.63;4.47;;;11.00;99.90;11.40;99698.00;;;;342987;28;90422;-89
2022/12/29 00:05:27;;;;;;;6.28;4.63;;;11.10;99.90;11.40;99699.00;;;;344668;28;82525;-90
2022/12/29 00:05:39;;;;;;;6.63;5.03;;;11.10;99.90;11.50;99708.00;;;;344357;28;89633;-90
2022/12/29 00:05:56;;;;;;;8.05;5.50;;;11.10;99.90;11.40;99707.00;;;;345786;28;84266;-90
2022/12/29 00:06:07;;;;;;;8.43;5.35;;;11.10;99.90;11.40;99700.00;;;;344208;28;90871;-90
2022/12/29 00:06:19;;;;;;;7.55;4.97;;;11.10;99.90;11.30;99701.00;;;;344612;28;82524;-90
2022/12/29 00:06:31;;;;;;;9.65;5.18;;;11.10;99.90;11.40;99703.00;;;;345431;28;89503;-89
2022/12/29 00:06:43;;;;;;;10.50;5.88;;;11.10;99.90;11.40;99700.00;;;;346003;28;83393;-89
2022/12/29 00:06:55;;;;;;;9.68;5.60;;;11.10;99.90;11.40;99698.00;;;;344088;28;88222;-90
2022/12/29 00:07:07;;;;;;;9.02;4.90;;;11.10;99.90;11.40;99708.00;;;;343356;28;83166;-89
2022/12/29 00:07:19;;;;;;;6.78;4.55;;;11.10;99.90;11.40;99698.00;;;;344300;28;88631;-90
2022/12/29 00:07:31;;;;;;;7.35;4.82;;;11.10;99.90;11.40;99699.00;;;;346033;28;83373;-90
2022/12/29 00:07:43;;;;;;;9.23;5.32;;;11.10;99.90;11.40;99703.00;;;;344452;28;89434;-90
2022/12/29 00:07:55;;;;;;;8.40;4.85;;;11.10;99.90;11.40;99700.00;;;;343136;28;83824;-89
2022/12/29 00:08:06;;;;;;;7.78;4.57;;;11.10;99.90;11.30;99696.00;;;;344192;28;90266;-89
2022/12/29 00:08:18;;;;;;;7.78;4.65;;;11.10;99.90;11.40;99703.00;;;;345837;28;83620;-89
2022/12/29 00:08:39;;;;;;;8.52;5.20;;;11.10;99.90;11.50;99706.00;;;;344380;28;88475;-89
2022/12/29 00:08:52;;;;;;;7.88;5.03;;;11.10;99.90;11.30;99702.00;;;;346025;28;83393;-90
2022/12/29 00:09:04;;;;;;;7.90;4.78;;;11.10;99.90;11.30;99707.00;;;;344343;28;89628;-90
2022/12/29 00:09:16;;;;;;;8.50;5.22;;;11.10;99.90;11.30;99694.00;;;;342055;28;83480;-90
2022/12/29 00:09:28;;;;;;;7.18;5.40;;;11.10;99.90;11.40;99703.00;;;;341882;28;91776;-90
2022/12/29 00:09:40;;;;;;;6.57;5.10;;;11.10;99.90;11.30;99704.00;;;;343525;28;83823;-90
2022/12/29 00:09:52;;;;;;;7.28;5.40;;;11.10;99.90;11.30;99704.00;;;;346065;28;89792;-90
2022/12/29 00:10:04;;;;;;;9.55;5.45;;;11.10;99.90;11.40;99698.00;;;;346002;28;82674;-89
2022/12/29 00:10:16;;;;;;;9.10;5.30;;;11.10;99.90;11.40;99700.00;;;;344195;28;91926;-89
2022/12/29 00:10:28;;;;;;;7.85;5.40;;;11.10;99.90;11.40;99699.00;;;;346130;28;83475;-89
2022/12/29 00:10:40;;;;;;;6.78;5.00;;;11.10;99.90;11.40;99697.00;;;;345909;28;91168;-90
2022/12/29 00:10:52;;;;;;;7.22;5.13;;;11.10;99.90;11.50;99704.00;;;;343422;28;83450;-90
2022/12/29 00:11:04;;;;;;;7.57;5.05;;;11.10;99.90;11.40;99702.00;;;;344524;28;89402;-90
2022/12/29 00:11:21;;;;;;;7.32;5.30;;;11.10;99.90;11.40;99699.00;;;;345035;28;82240;-89
2022/12/29 00:11:33;;;;;;;7.60;4.80;;;11.10;99.90;11.40;99698.00;;;;342989;28;91395;-88
2022/12/29 00:11:45;;;;;;;7.10;4.50;;;11.10;99.90;11.40;99700.00;;;;346099;28;83118;-90
2022/12/29 00:11:57;;;;;;;7.62;4.48;;;11.10;99.90;11.40;99697.00;;;;341913;28;88493;-89
2022/12/29 00:12:09;;;;;;;6.13;4.72;;;11.10;99.90;11.40;99704.00;;;;343373;28;82482;-90
2022/12/29 00:12:21;;;;;;;6.28;4.70;;;11.10;99.90;11.50;99693.00;;;;341809;28;89589;-90
2022/12/29 00:15:38;;;;;;;7.22;4.95;;;11.20;99.90;11.30;99697.00;;;;344174;28;82611;-90
2022/12/29 00:15:50;;;;;;;7.55;4.97;;;11.10;99.90;11.40;99694.00;;;;343806;28;90172;-90
2022/12/29 00:16:02;;;;;;;8.43;5.25;;;11.10;99.90;11.30;99694.00;;;;343099;28;83458;-90
2022/12/29 00:16:14;;;;;;;8.07;5.15;;;11.10;99.90;11.40;99699.00;;;;343871;28;90342;-90
2022/12/29 00:16:26;;;;;;;8.80;5.10;;;11.10;99.90;11.30;99685.00;;;;341696;28;83330;-90
2022/12/29 00:16:43;;;;;;;9.00;5.50;;;11.10;99.90;11.30;99696.00;;;;346663;28;89754;-90
2022/12/29 00:16:55;;;;;;;8.85;5.63;;;11.10;99.90;11.30;99697.00;;;;345827;28;82353;-89
2022/12/29 00:17:07;;;;;;;8.93;5.32;;;11.10;99.90;11.30;99696.00;;;;342610;28;89432;-90
2022/12/29 00:17:19;;;;;;;9.02;5.30;;;11.10;99.90;11.30;99693.00;;;;343154;28;83380;-89
2022/12/29 00:17:31;;;;;;;8.18;5.50;;;11.10;99.90;11.30;99694.00;;;;342599;28;89424;-89
2022/12/29 00:17:43;;;;;;;8.23;5.75;;;11.10;99.90;11.30;99693.00;;;;344551;28;83332;-90
2022/12/29 00:17:55;;;;;;;7.28;5.53;;;11.10;99.90;11.40;99695.00;;;;345408;28;89463;-90
2022/12/29 00:18:07;;;;;;;6.68;5.35;;;11.10;99.90;11.40;99689.00;;;;344346;28;82486;-89
2022/12/29 00:18:19;;;;;;;6.68;5.53;;;11.10;99.90;11.50;99684.00;;;;342633;28;88842;-90
2022/12/29 00:18:31;;;;;;;6.55;5.47;;;11.10;99.90;11.40;99689.00;;;;345304;28;83603;-89
2022/12/29 00:18:42;;;;;;;7.13;5.07;;;11.10;99.90;11.30;99682.00;;;;343825;28;91966;-90
2022/12/29 00:18:54;;;;;;;7.55;4.93;;;11.10;99.90;11.30;99687.00;;;;345817;28;83446;-90
2022/12/29 00:35:07;;;;;;;7.57;5.18;;;11.10;99.90;11.30;99682.00;;;;343885;28;88668;-91
2022/12/29 00:35:08;;;;;;;9.98;5.38;;;11.30;99.90;11.60;99676.00;;;;342860;28;82663;-90
2022/12/29 00:35:35;;;;;;;10.07;5.60;;;11.30;99.90;11.60;99671.00;;;;341169;28;88019;-90
2022/12/29 00:35:53;;;;;;;8.32;5.25;;;11.30;99.90;11.60;99678.00;;;;344333;28;83349;-90
2022/12/29 00:36:11;;;;;;;7.18;4.95;;;11.30;99.90;11.60;99682.00;;;;341235;28;87778;-89
2022/12/29 00:36:27;;;;;;;8.80;5.43;;;11.30;99.90;11.60;99680.00;;;;344309;28;83450;-90
2022/12/29 00:36:40;;;;;;;7.57;5.25;;;11.30;99.90;11.60;99685.00;;;;342613;28;89759;-90
2022/12/29 00:36:52;;;;;;;7.43;4.85;;;11.30;99.90;11.50;99681.00;;;;344297;28;83150;-90
2022/12/29 00:37:04;;;;;;;7.38;4.47;;;11.30;99.90;11.50;99681.00;;;;342575;28;91708;-89
2022/12/29 00:37:16;;;;;;;8.70;4.88;;;11.30;99.90;11.50;99670.00;;;;344150;28;82524;-90
2022/12/29 00:44:11;;;;;;;11.00;5.45;;;11.30;99.90;11.60;99687.00;;;;341154;28;88171;-90
2022/12/29 00:44:24;;;;;;;8.06;5.46;;;11.30;99.90;11.60;99682.00;;;;340265;28;82447;-90
2022/12/29 00:44:36;;;;;;;7.65;5.82;;;11.30;99.90;11.70;99690.00;;;;341354;28;89237;-90
2022/12/29 00:44:48;;;;;;;8.68;6.07;;;11.30;99.90;11.60;99683.00;;;;336247;28;82514;-90
2022/12/29 00:45:00;;;;;;;9.43;6.07;;;11.30;99.90;11.60;99686.00;;;;339606;28;91925;-90
2022/12/29 00:45:12;;;;;;;10.00;5.85;;;11.30;99.90;11.60;99681.00;;;;340111;28;82719;-90
2022/12/29 00:45:23;;;;;;;9.35;5.57;;;11.30;99.90;11.50;99685.00;;;;335552;28;92591;-90
2022/12/29 00:45:35;;;;;;;8.90;5.88;;;11.30;99.90;11.50;99681.00;;;;339840;28;83624;-90
2022/12/29 00:45:47;;;;;;;7.90;5.78;;;11.30;99.90;11.60;99672.00;;;;341326;28;88648;-90
2022/12/29 00:45:59;;;;;;;8.93;5.63;;;11.30;99.90;11.60;99689.00;;;;338940;28;83389;-90
2022/12/29 00:46:11;;;;;;;8.85;5.07;;;11.30;99.90;11.60;99686.00;;;;338507;28;89447;-89
2022/12/29 00:46:33;;;;;;;8.10;4.97;;;11.30;99.90;11.60;99685.00;;;;338975;28;82434;-90
2022/12/29 00:46:45;;;;;;;8.45;5.22;;;11.30;99.90;11.70;99682.00;;;;339822;28;89831;-89
2022/12/29 00:47:02;;;;;;;9.23;5.15;;;11.30;99.90;11.60;99678.00;;;;340127;28;82596;-89
2022/12/29 00:47:13;;;;;;;11.13;5.68;;;11.30;99.90;11.60;99686.00;;;;338495;28;90796;-90
2022/12/29 00:47:26;;;;;;;11.10;5.65;;;11.30;99.90;11.60;99686.00;;;;338889;28;83304;-89
2022/12/29 00:47:37;;;;;;;10.70;5.95;;;11.30;99.90;11.70;99679.00;;;;337277;28;89272;-89
2022/12/29 00:47:49;;;;;;;10.93;5.93;;;11.30;99.90;11.70;99684.00;;;;338908;28;83323;-89
2022/12/29 00:48:01;;;;;;;8.63;5.50;;;11.30;99.90;11.70;99682.00;;;;339998;28;89791;-90
2022/12/29 00:48:13;;;;;;;6.65;5.05;;;11.40;99.90;11.60;99686.00;;;;338568;28;83321;-90
2022/12/29 00:49:31;;;;;;;7.80;5.95;;;11.30;99.90;11.70;99679.00;;;;338472;28;89261;-89
2022/12/29 00:49:43;;;;;;;8.68;5.68;;;11.30;99.90;11.60;99688.00;;;;338911;28;83214;-89
2022/12/29 00:49:55;;;;;;;8.88;5.45;;;11.30;99.90;11.70;99683.00;;;;338495;28;90446;-90
2022/12/29 00:50:07;;;;;;;8.18;4.97;;;11.40;99.90;11.70;99683.00;;;;337490;28;85015;-90
2022/12/29 00:50:19;;;;;;;7.05;4.88;;;11.40;99.90;11.70;99677.00;;;;339984;28;89577;-89
2022/12/29 00:50:31;;;;;;;7.10;5.03;;;11.40;99.90;11.60;99684.00;;;;339984;28;85138;-90
2022/12/29 00:50:43;;;;;;;8.60;5.80;;;11.30;99.90;11.60;99681.00;;;;337345;28;89538;-89
2022/12/29 00:50:56;;;;;;;9.27;6.20;;;11.30;99.90;11.60;99667.00;;;;338883;28;83287;-90
2022/12/29 00:51:08;;;;;;;8.23;5.40;;;11.30;99.90;11.70;99668.00;;;;336989;28;88817;-89
2022/12/29 00:51:20;;;;;;;10.50;5.10;;;11.30;99.90;11.70;99678.00;;;;340088;28;83530;-88
2022/12/29 00:51:32;;;;;;;12.23;4.93;;;11.40;99.90;11.70;99676.00;;;;339872;28;88989;-89
2022/12/29 00:51:44;;;;;;;11.90;5.13;;;11.40;99.90;11.70;99674.00;;;;339927;28;83548;-90
2022/12/29 00:51:58;;;;;;;7.50;5.35;;;11.40;99.90;11.60;99681.00;;;;341203;28;89605;-89
2022/12/29 00:52:11;;;;;;;8.25;5.40;;;11.40;99.90;11.60;99671.00;;;;338880;28;82962;-90
2022/12/29 00:52:23;;;;;;;7.85;4.90;;;11.40;99.90;11.60;99675.00;;;;339685;28;92873;-90
2022/12/29 00:52:35;;;;;;;7.25;5.07;;;11.40;99.90;11.60;99681.00;;;;337619;28;83464;-90
2022/12/29 00:52:47;;;;;;;6.75;5.25;;;11.40;99.90;11.60;99677.00;;;;338472;28;89695;-89
2022/12/29 00:52:59;;;;;;;8.13;5.30;;;11.40;99.90;11.60;99677.00;;;;338939;28;83378;-90
2022/12/29 00:53:11;;;;;;;7.57;5.40;;;11.40;99.90;11.70;99673.00;;;;338536;28;90796;-89
2022/12/29 00:53:23;;;;;;;14.02;5.97;;;11.40;99.90;11.70;99679.00;;;;340276;28;83218;-90
2022/12/29 00:53:34;;;;;;;13.65;5.88;;;11.40;99.90;11.70;99679.00;;;;338473;28;88587;-90
2022/12/29 00:53:46;;;;;;;11.13;5.90;;;11.40;99.90;11.70;99673.00;;;;337268;28;83432;-90
2022/12/29 00:53:58;;;;;;;9.25;5.82;;;11.40;99.90;11.70;99681.00;;;;338532;28;90856;-90
2022/12/29 00:54:10;;;;;;;8.95;5.53;;;11.40;99.90;11.70;99673.00;;;;340181;28;83153;-89
2022/12/29 00:54:22;;;;;;;8.00;5.63;;;11.40;99.90;11.70;99677.00;;;;338681;28;90143;-89
2022/12/29 00:54:36;;;;;;;9.93;6.13;;;11.40;99.90;11.70;99685.00;;;;341273;28;83402;-89
2022/12/29 00:54:48;;;;;;;9.95;6.10;;;11.40;99.90;11.70;99683.00;;;;338653;28;89890;-90
2022/12/29 00:55:00;;;;;;;7.45;5.32;;;11.40;99.90;11.80;99684.00;;;;338673;28;83358;-89
2022/12/29 00:55:11;;;;;;;7.50;5.50;;;11.40;99.90;11.80;99677.00;;;;339947;28;88567;-89
2022/12/29 00:55:24;;;;;;;9.07;6.05;;;11.40;99.90;11.70;99680.00;;;;338985;28;82900;-88
2022/12/29 00:55:38;;;;;;;9.45;6.10;;;11.40;99.90;11.80;99687.00;;;;339881;28;89856;-89
2022/12/29 00:55:50;;;;;;;8.25;5.30;;;11.40;99.90;11.80;99692.00;;;;340274;28;82321;-89
2022/12/29 00:56:02;;;;;;;7.65;5.18;;;11.40;99.90;11.80;99677.00;;;;337193;28;90680;-89
2022/12/29 00:56:14;;;;;;;9.10;6.00;;;11.40;99.90;11.80;99674.00;;;;340322;28;83471;-90
2022/12/29 00:56:26;;;;;;;9.05;6.32;;;11.40;99.90;11.70;99683.00;;;;338693;28;89372;-90
2022/12/29 00:56:38;;;;;;;8.10;6.18;;;11.40;99.90;11.70;99678.00;;;;337594;28;83349;-90
2022/12/29 00:56:51;;;;;;;8.05;5.40;;;11.40;99.90;11.70;99684.00;;;;338423;28;88979;-90
2022/12/29 00:57:03;;;;;;;9.90;5.80;;;11.40;99.90;11.70;99687.00;;;;340175;28;83771;-89
2022/12/29 00:57:15;;;;;;;9.93;5.65;;;11.40;99.90;11.70;99682.00;;;;341290;28;89796;-89
2022/12/29 00:57:28;;;;;;;9.20;5.35;;;11.40;99.90;11.70;99687.00;;;;338836;28;83014;-89
2022/12/29 00:57:40;;;;;;;9.25;5.22;;;11.40;99.90;11.70;99684.00;;;;338344;28;88342;-89
2022/12/29 00:57:52;;;;;;;9.40;5.07;;;11.40;99.90;11.80;99679.00;;;;340066;28;83298;-89
2022/12/29 00:58:04;;;;;;;9.23;5.28;;;11.40;99.90;11.80;99682.00;;;;337133;28;90324;-89
2022/12/29 00:58:16;;;;;;;8.63;5.38;;;11.50;99.90;11.70;99690.00;;;;340281;28;82550;-90
2022/12/29 00:58:29;;;;;;;8.38;5.63;;;11.40;99.90;11.80;99684.00;;;;339630;28;90233;-89
2022/12/29 00:58:41;;;;;;;8.43;5.65;;;11.50;99.90;11.80;99676.00;;;;338887;28;83443;-89
2022/12/29 00:58:53;;;;;;;7.55;5.22;;;11.50;99.90;11.70;99678.00;;;;339759;28;87913;-90
2022/12/29 00:59:07;;;;;;;7.30;5.18;;;11.50;99.90;11.80;99681.00;;;;340188;28;83439;-89
2022/12/29 00:59:19;;;;;;;7.82;5.63;;;11.50;99.90;11.70;99683.00;;;;339925;28;88592;-89
2022/12/29 00:59:31;;;;;;;7.55;5.63;;;11.50;99.90;11.70;99680.00;;;;340271;28;83390;-89
2022/12/29 00:59:43;;;;;;;7.15;5.45;;;11.50;99.90;11.80;99680.00;;;;339919;28;88733;-89
2022/12/29 00:59:55;;;;;;;6.75;5.28;;;11.40;99.90;11.80;99688.00;;;;338723;28;82557;-89
2022/12/29 01:00:07;;;;;;;8.90;5.85;;;11.50;99.90;11.70;99686.00;;;;339703;28;90796;-89
2022/12/29 01:00:19;;;;;;;9.25;6.03;;;11.50;99.90;11.80;99682.00;;;;340391;28;82338;-89
2022/12/29 01:00:31;;;;;;;8.23;5.82;;;11.50;99.90;11.70;99677.00;;;;338490;28;92554;-89
2022/12/29 01:00:43;;;;;;;6.85;5.30;;;11.40;99.90;11.80;99674.00;;;;338760;28;83058;-89
2022/12/29 01:01:06;;;;;;;8.05;5.63;;;11.50;99.90;11.80;99688.00;;;;338354;28;89390;-89
2022/12/29 01:01:18;;;;;;;7.40;4.97;;;11.50;99.90;11.80;99685.00;;;;338956;28;83350;-89
2022/12/29 01:01:30;;;;;;;6.50;4.88;;;11.50;99.90;11.80;99679.00;;;;338621;28;89790;-89
2022/12/29 01:01:43;;;;;;;7.95;5.40;;;11.50;99.90;11.80;99670.00;;;;338971;28;83223;-89
2022/12/29 01:01:55;;;;;;;8.25;5.82;;;11.50;99.90;11.80;99685.00;;;;337218;28;89767;-89
2022/12/29 01:02:07;;;;;;;8.45;5.72;;;11.50;99.90;11.80;99682.00;;;;337547;28;83815;-89
2022/12/29 01:02:19;;;;;;;7.45;5.50;;;11.50;99.90;11.80;99675.00;;;;335911;28;89606;-89
2022/12/29 01:02:31;;;;;;;8.38;5.53;;;11.50;99.90;11.80;99674.00;;;;335051;29;82320;-90
2022/12/29 01:02:44;;;;;;;10.20;5.45;;;11.50;99.90;11.80;99679.00;;;;335811;28;91300;-89
2022/12/29 01:02:56;;;;;;;12.68;5.97;;;11.50;99.90;11.80;99673.00;;;;337536;28;83999;-90
2022/12/29 01:03:08;;;;;;;12.25;6.10;;;11.50;99.90;11.80;99684.00;;;;337247;28;88890;-89
2022/12/29 01:03:20;;;;;;;11.27;5.78;;;11.50;99.90;11.80;99680.00;;;;337722;28;83401;-89
2022/12/29 01:03:33;;;;;;;9.00;5.90;;;11.50;99.90;11.80;99687.00;;;;338363;28;89086;-89
2022/12/29 01:03:45;;;;;;;8.57;6.00;;;11.50;99.90;11.80;99683.00;;;;338779;28;82327;-89
2022/12/29 01:03:57;;;;;;;8.48;6.53;;;11.50;99.90;11.80;99679.00;;;;339956;28;89326;-89
2022/12/29 01:04:14;;;;;;;9.43;6.18;;;11.50;99.90;11.80;99677.00;;;;338663;28;83857;-89
2022/12/29 01:04:26;;;;;;;8.18;5.30;;;11.50;99.90;11.80;99683.00;;;;338483;28;91150;-88
2022/12/29 01:04:38;;;;;;;8.50;5.50;;;11.50;99.90;11.80;99673.00;;;;340291;28;82457;-89
2022/12/29 01:04:50;;;;;;;9.20;6.07;;;11.50;99.90;11.80;99684.00;;;;339803;28;89773;-89
2022/12/29 01:05:02;;;;;;;9.18;6.25;;;11.50;99.90;11.80;99679.00;;;;340230;28;83551;-89
2022/12/29 01:05:14;;;;;;;8.82;5.82;;;11.50;99.90;11.80;99679.00;;;;339651;28;87539;-90
2022/12/29 01:05:26;;;;;;;8.75;5.65;;;11.50;99.90;11.80;99678.00;;;;338800;28;83190;-90
2022/12/29 01:05:38;;;;;;;11.43;6.00;;;11.50;99.90;11.80;99684.00;;;;339706;28;91162;-90
2022/12/29 01:05:50;;;;;;;13.32;5.97;;;11.50;99.90;11.80;99687.00;;;;340095;28;83482;-90
2022/12/29 01:06:03;;;;;;;12.73;5.85;;;11.50;99.90;11.90;99690.00;;;;341032;28;92450;-90
2022/12/29 01:06:15;;;;;;;9.40;5.53;;;11.50;99.90;11.80;99683.00;;;;342720;28;83003;-90
2022/12/29 01:06:29;;;;;;;7.30;5.47;;;11.50;99.90;11.80;99686.00;;;;339837;28;89719;-90
2022/12/29 01:06:41;;;;;;;8.23;5.80;;;11.50;99.90;11.80;99688.00;;;;338948;28;83159;-90
2022/12/29 01:06:52;;;;;;;7.55;5.80;;;11.50;99.90;11.80;99684.00;;;;340581;28;87382;-90
2022/12/29 01:07:05;;;;;;;7.82;5.95;;;11.50;99.90;11.80;99685.00;;;;340184;28;83375;-90
2022/12/29 01:07:16;;;;;;;7.72;5.55;;;11.50;99.90;11.80;99685.00;;;;340020;28;88658;-90
2022/12/29 01:07:29;;;;;;;8.07;5.90;;;11.50;99.90;11.70;99686.00;;;;342728;28;84947;-90
2022/12/29 01:07:40;;;;;;;8.05;5.50;;;11.50;99.90;11.70;99687.00;;;;341024;28;90456;-90
2022/12/29 01:07:52;;;;;;;7.78;5.35;;;11.50;99.90;11.70;99689.00;;;;340152;28;83639;-90
2022/12/29 01:08:04;;;;;;;7.85;5.28;;;11.50;99.90;11.80;99683.00;;;;341210;28;89808;-89
2022/12/29 01:08:17;;;;;;;7.45;4.97;;;11.50;99.90;11.80;99694.00;;;;340287;28;83653;-90
2022/12/29 01:08:29;;;;;;;6.57;4.97;;;11.50;99.90;11.80;99681.00;;;;336984;28;92906;-90
2022/12/29 01:08:41;;;;;;;7.03;5.43;;;11.50;99.90;11.80;99684.00;;;;341757;28;82430;-90
2022/12/29 01:10:09;;;;;;;9.65;5.47;;;11.50;99.90;11.80;99695.00;;;;339867;28;88430;-89
2022/12/29 01:10:21;;;;;;;7.15;5.38;;;11.50;99.90;11.70;99689.00;;;;341390;28;83420;-90
2022/12/29 01:10:33;;;;;;;8.23;5.47;;;11.50;99.90;11.80;99693.00;;;;341250;28;90006;-90
2022/12/29 01:10:45;;;;;;;8.13;5.65;;;11.50;99.90;11.80;99680.00;;;;342653;28;84274;-88
2022/12/29 01:11:02;;;;;;;9.18;6.18;;;11.50;99.90;11.90;99683.00;;;;339561;28;92299;-90
2022/12/29 01:11:13;;;;;;;10.20;6.13;;;11.50;99.90;12.00;99689.00;;;;341340;28;85465;-89
2022/12/29 01:11:25;;;;;;;8.88;5.80;;;11.60;99.90;11.90;99683.00;;;;339839;28;89126;-89
2022/12/29 01:11:38;;;;;;;8.02;5.72;;;11.60;99.90;11.90;99681.00;;;;338972;28;82623;-90
2022/12/29 01:11:50;;;;;;;8.88;6.15;;;11.60;99.90;11.90;99686.00;;;;339808;28;89435;-89
2022/12/29 01:12:03;;;;;;;9.02;6.07;;;11.60;99.90;12.00;99685.00;;;;340314;28;82402;-90
2022/12/29 01:12:15;;;;;;;8.77;5.47;;;11.60;99.90;11.80;99693.00;;;;341007;28;90643;-89
2022/12/29 01:12:40;;;;;;;10.48;5.20;;;11.60;99.90;11.80;99690.00;;;;340248;28;83741;-90
2022/12/29 01:12:52;;;;;;;9.13;6.05;;;11.60;99.90;11.70;99692.00;;;;341008;28;88668;-90
2022/12/29 01:13:04;;;;;;;7.47;6.20;;;11.60;99.90;11.70;99683.00;;;;340158;28;85088;-90
2022/12/29 01:13:16;;;;;;;8.00;5.95;;;11.60;99.90;11.80;99693.00;;;;338722;28;89734;-90
2022/12/29 01:13:28;;;;;;;8.77;6.35;;;11.60;99.90;11.80;99684.00;;;;338616;28;82681;-90
2022/12/29 01:13:42;;;;;;;9.95;6.38;;;11.60;99.90;11.80;99685.00;;;;338515;28;89141;-90
2022/12/29 01:13:54;;;;;;;8.65;5.78;;;11.60;99.90;11.80;99690.00;;;;339999;28;83426;-90
2022/12/29 01:14:06;;;;;;;7.38;5.68;;;11.60;99.90;11.90;99686.00;;;;339905;28;88224;-90
2022/12/29 01:14:18;;;;;;;7.88;5.68;;;11.60;99.90;11.90;99695.00;;;;341616;28;82517;-90
2022/12/29 01:14:30;;;;;;;9.32;5.72;;;11.60;99.90;11.80;99689.00;;;;342634;28;88486;-90
2022/12/29 01:14:42;;;;;;;10.20;6.25;;;11.60;99.90;11.80;99684.00;;;;340275;28;83277;-90
2022/12/29 01:14:54;;;;;;;9.60;5.88;;;11.60;99.90;11.80;99687.00;;;;338418;28;89741;-90
2022/12/29 01:15:08;;;;;;;7.35;5.53;;;11.60;99.90;11.80;99689.00;;;;339020;28;83244;-90
2022/12/29 01:15:20;;;;;;;7.90;5.85;;;11.60;99.90;11.80;99689.00;;;;338624;28;88925;-90
2022/12/29 01:15:31;;;;;;;8.93;6.57;;;11.60;99.90;11.80;99676.00;;;;340098;28;83526;-90
2022/12/29 01:15:52;;;;;;;7.45;6.22;;;11.60;99.90;11.70;99686.00;;;;341189;28;91015;-90
2022/12/29 01:16:05;;;;;;;8.57;5.55;;;11.60;99.90;11.80;99683.00;;;;340251;28;83361;-88
2022/12/29 01:16:17;;;;;;;8.73;5.55;;;11.50;99.90;11.80;99692.00;;;;339600;28;91228;-90
2022/12/29 01:16:29;;;;;;;8.93;6.07;;;11.60;99.90;11.80;99693.00;;;;341287;28;83316;-90
2022/12/29 01:16:41;;;;;;;8.63;6.20;;;11.60;99.90;11.80;99694.00;;;;340014;28;89083;-90
2022/12/29 01:16:54;;;;;;;7.85;5.70;;;11.60;99.90;11.80;99687.00;;;;340115;28;83417;-90
2022/12/29 01:17:06;;;;;;;7.68;5.35;;;11.60;99.90;11.70;99688.00;;;;341203;28;89782;-90
2022/12/29 01:17:18;;;;;;;7.38;5.10;;;11.60;99.90;11.70;99686.00;;;;341445;28;84332;-91
2022/12/29 01:17:30;;;;;;;9.00;5.10;;;11.60;99.90;11.70;99681.00;;;;340884;28;91964;-90
2022/12/29 01:17:42;;;;;;;9.68;5.65;;;11.50;99.90;11.80;99691.00;;;;341653;28;83277;-90
2022/12/29 01:17:54;;;;;;;9.23;5.47;;;11.60;99.90;11.90;99688.00;;;;341185;28;88832;-90
2022/12/29 01:18:06;;;;;;;9.27;5.72;;;11.50;99.90;11.80;99681.00;;;;341239;28;84842;-90
2022/12/29 01:18:18;;;;;;;9.05;5.88;;;11.60;99.90;11.80;99693.00;;;;338278;28;90578;-90
2022/12/29 01:18:29;;;;;;;7.93;5.72;;;11.50;99.90;11.80;99691.00;;;;340211;28;83399;-89
2022/12/29 01:18:41;;;;;;;9.05;5.88;;;11.50;99.90;11.70;99691.00;;;;342580;28;88629;-89
2022/12/29 01:18:53;;;;;;;10.40;6.10;;;11.50;99.90;11.80;99685.00;;;;345502;28;83578;-89
2022/12/29 01:19:06;;;;;;;10.55;6.20;;;11.50;99.90;11.80;99690.00;;;;347502;27;89734;-90
2022/12/29 01:19:18;;;;;;;8.68;5.90;;;11.50;99.90;11.70;99693.00;;;;346929;27;83346;-89
2022/12/29 01:19:30;;;;;;;8.23;5.78;;;11.50;99.90;11.80;99696.00;;;;345189;28;92097;-89
2022/12/29 01:19:41;;;;;;;7.47;5.63;;;11.50;99.90;11.80;99693.00;;;;345843;28;82509;-89
2022/12/29 01:19:53;;;;;;;6.70;5.47;;;11.50;99.90;11.80;99685.00;;;;343967;28;89987;-90
2022/12/29 01:20:06;;;;;;;7.00;5.50;;;11.50;99.90;11.80;99681.00;;;;347031;28;83270;-88
2022/12/29 01:20:18;;;;;;;8.45;5.82;;;11.50;99.90;11.80;99689.00;;;;343984;28;88688;-89
2022/12/29 01:20:30;;;;;;;9.02;6.13;;;11.50;99.90;11.90;99699.00;;;;345736;28;82395;-90
2022/12/29 01:20:41;;;;;;;8.65;5.90;;;11.50;99.90;11.90;99692.00;;;;345434;28;88372;-89
2022/12/29 01:21:04;;;;;;;8.63;5.78;;;11.50;99.90;11.80;99698.00;;;;345618;28;83441;-90
2022/12/29 01:21:17;;;;;;;8.70;5.80;;;11.50;99.90;11.80;99697.00;;;;344062;28;88622;-89
2022/12/29 01:21:29;;;;;;;8.75;5.80;;;11.50;99.90;11.70;99689.00;;;;343016;28;82539;-90
2022/12/29 01:21:41;;;;;;;8.32;6.00;;;11.50;99.90;11.70;99692.00;;;;347861;27;90028;-90
2022/12/29 01:21:53;;;;;;;7.88;6.25;;;11.50;99.90;11.70;99695.00;;;;348313;27;83434;-90
2022/12/29 01:22:05;;;;;;;7.00;5.82;;;11.50;99.90;11.80;99699.00;;;;346320;28;93873;-90
2022/12/29 01:22:17;;;;;;;7.68;5.45;;;11.50;99.90;11.70;99683.00;;;;347079;28;82704;-91
2022/12/29 01:22:29;;;;;;;8.82;5.40;;;11.50;99.90;11.70;99689.00;;;;342632;28;89444;-92
2022/12/29 01:22:42;;;;;;;12.13;5.78;;;11.50;99.90;11.80;99692.00;;;;342770;28;83269;-92
2022/12/29 01:22:54;;;;;;;11.38;6.00;;;11.50;99.90;11.70;99691.00;;;;345158;28;89001;-93
2022/12/29 01:23:06;;;;;;;7.55;5.80;;;11.50;99.90;11.80;99691.00;;;;344288;28;84648;-92
2022/12/29 01:23:18;;;;;;;6.80;5.40;;;11.50;99.90;11.80;99688.00;;;;348228;27;88371;-92
2022/12/29 01:23:30;;;;;;;7.07;5.25;;;11.50;99.90;11.80;99698.00;;;;347002;27;83336;-92
2022/12/29 01:23:42;;;;;;;8.18;5.65;;;11.50;99.90;11.80;99688.00;;;;346508;28;89654;-92
2022/12/29 01:23:53;;;;;;;8.10;6.10;;;11.50;99.90;11.80;99698.00;;;;345516;28;82734;-92
2022/12/29 01:24:06;;;;;;;7.05;6.05;;;11.50;99.90;11.70;99691.00;;;;346789;28;88823;-91
2022/12/29 01:24:18;;;;;;;8.45;6.05;;;11.50;99.90;11.70;99698.00;;;;347085;28;83187;-92
2022/12/29 01:24:30;;;;;;;10.30;5.97;;;11.50;99.90;11.70;99702.00;;;;341445;28;88001;-92